Time;durP1;ratioP1;P1;durP2;ratioP2;P2;SDS_P1;SDS_P2;PMS_P1;PMS_P2;Temp;Humidity;BMP_temperature;BMP_pressure;BME280_temperature;BME280_humidity;BME280_pressure;Samples;Min_cycle;Max_cycle;Signal;HPM_P1;HPM_P2
2020/12/15 00:01:30;;;;;;;29.08;17.70;;;3.50;99.90;;;;;;5014032;28;20034;-68
2020/12/15 00:03:56;;;;;;;28.15;18.25;;;3.60;99.90;;;;;;5028598;28;20057;-68
2020/12/15 00:06:21;;;;;;;27.95;18.52;;;3.50;99.90;;;;;;5012730;28;20068;-68
2020/12/15 00:08:47;;;;;;;31.55;20.98;;;3.60;99.90;;;;;;5014333;28;20038;-69
2020/12/15 00:11:19;;;;;;;31.52;20.02;;;3.60;99.90;;;;;;5013524;28;20050;-69
2020/12/15 00:13:45;;;;;;;32.35;19.90;;;3.60;99.90;;;;;;5013137;28;20072;-69
2020/12/15 00:16:16;;;;;;;29.85;18.88;;;3.50;99.90;;;;;;5013691;28;20053;-68
2020/12/15 00:18:42;;;;;;;31.88;19.88;;;3.50;99.90;;;;;;5013987;28;20087;-69
2020/12/15 00:21:08;;;;;;;30.77;19.48;;;3.50;99.90;;;;;;5013883;28;20025;-69
2020/12/15 00:23:33;;;;;;;29.88;18.85;;;3.50;99.90;;;;;;5012739;28;20030;-67
2020/12/15 00:25:59;;;;;;;31.30;18.67;;;3.60;99.90;;;;;;5013576;28;20029;-68
2020/12/15 00:28:25;;;;;;;28.38;18.55;;;3.60;99.90;;;;;;4994532;28;20552;-68
2020/12/15 00:30:51;;;;;;;29.50;19.20;;;3.60;99.90;;;;;;4994223;28;20113;-67
2020/12/15 00:33:17;;;;;;;26.90;17.70;;;3.50;99.90;;;;;;4993359;28;20030;-67
2020/12/15 00:35:43;;;;;;;26.13;17.77;;;3.50;99.90;;;;;;4993578;28;20021;-68
2020/12/15 00:38:08;;;;;;;28.85;18.38;;;3.60;99.90;;;;;;5008868;28;20026;-67
2020/12/15 00:40:34;;;;;;;27.38;18.02;;;3.60;99.90;;;;;;4993547;28;20030;-67
2020/12/15 00:43:00;;;;;;;26.98;18.40;;;3.60;99.90;;;;;;4992972;28;20484;-68
2020/12/15 00:45:25;;;;;;;31.92;19.17;;;3.60;99.90;;;;;;4993563;28;20044;-67
2020/12/15 00:47:51;;;;;;;28.55;17.75;;;3.60;99.90;;;;;;4993745;28;20030;-67
2020/12/15 00:50:17;;;;;;;26.45;16.65;;;3.60;99.90;;;;;;4993591;28;20015;-68
2020/12/15 00:52:43;;;;;;;29.40;19.15;;;3.50;99.90;;;;;;4992776;28;20066;-68
2020/12/15 00:55:08;;;;;;;27.30;17.13;;;3.80;99.90;;;;;;4993288;28;20033;-68
2020/12/15 00:57:34;;;;;;;27.30;16.65;;;3.70;99.90;;;;;;5004738;28;20079;-69
2020/12/15 01:00:00;;;;;;;26.67;17.98;;;3.70;99.90;;;;;;5012837;28;20057;-67
2020/12/15 01:02:25;;;;;;;27.77;17.15;;;3.70;99.90;;;;;;5012959;28;20499;-67
2020/12/15 01:04:51;;;;;;;28.30;17.13;;;3.70;99.90;;;;;;5012065;28;20068;-67
2020/12/15 01:07:17;;;;;;;33.67;18.38;;;3.70;99.90;;;;;;5012588;28;20038;-67
2020/12/15 01:09:42;;;;;;;27.35;17.75;;;3.70;99.90;;;;;;5012714;28;20029;-67
2020/12/15 01:12:12;;;;;;;24.75;17.15;;;3.70;99.90;;;;;;5012330;28;20073;-67
2020/12/15 01:14:38;;;;;;;24.65;17.13;;;3.70;99.90;;;;;;5011973;28;20018;-67
2020/12/15 01:17:08;;;;;;;23.38;15.57;;;3.70;99.90;;;;;;5012648;28;20041;-67
2020/12/15 01:19:34;;;;;;;25.13;16.50;;;3.70;99.90;;;;;;5012222;28;20026;-67
2020/12/15 01:22:00;;;;;;;25.10;16.55;;;3.80;99.90;;;;;;5012496;28;20468;-69
2020/12/15 01:24:26;;;;;;;21.35;15.20;;;3.70;99.90;;;;;;5011867;28;20456;-68
2020/12/15 01:26:52;;;;;;;23.73;15.40;;;3.80;99.90;;;;;;5012091;28;20105;-68
2020/12/15 01:29:18;;;;;;;23.50;15.82;;;3.80;99.90;;;;;;5012382;28;20127;-68
2020/12/15 01:31:44;;;;;;;23.48;15.52;;;3.70;99.90;;;;;;5012245;28;20057;-68
2020/12/15 01:34:09;;;;;;;22.00;15.20;;;3.70;99.90;;;;;;5011543;28;20069;-68
2020/12/15 01:36:35;;;;;;;20.23;14.57;;;3.80;99.90;;;;;;5012420;28;20021;-69
2020/12/15 01:39:01;;;;;;;22.30;15.75;;;3.90;99.90;;;;;;5012696;28;20452;-69
2020/12/15 01:41:27;;;;;;;24.40;15.52;;;3.80;99.90;;;;;;5012141;28;20484;-69
2020/12/15 01:43:53;;;;;;;20.13;15.13;;;3.90;99.90;;;;;;5026669;28;20088;-69
2020/12/15 01:46:20;;;;;;;22.70;14.45;;;3.90;99.90;;;;;;5012201;28;20025;-69
2020/12/15 01:48:46;;;;;;;26.52;16.15;;;3.90;99.90;;;;;;5011997;28;20026;-68
2020/12/15 01:51:13;;;;;;;21.77;15.85;;;3.90;99.90;;;;;;5011858;28;20022;-69
2020/12/15 01:53:38;;;;;;;26.35;16.33;;;3.90;99.90;;;;;;5011549;28;20050;-69
2020/12/15 01:56:04;;;;;;;24.55;15.93;;;4.00;99.90;;;;;;5012154;28;20166;-69
2020/12/15 01:58:30;;;;;;;22.83;15.98;;;4.00;99.90;;;;;;5012104;28;20030;-69
2020/12/15 02:00:56;;;;;;;25.45;15.20;;;4.00;99.90;;;;;;5012010;28;20029;-69
2020/12/15 02:03:21;;;;;;;21.27;13.75;;;4.00;99.90;;;;;;5026189;28;20084;-69
2020/12/15 02:05:47;;;;;;;21.50;14.70;;;4.00;99.90;;;;;;5026943;28;20034;-68
2020/12/15 02:08:13;;;;;;;23.08;14.63;;;3.90;99.90;;;;;;5026830;28;20125;-69
2020/12/15 02:10:39;;;;;;;23.55;15.45;;;4.00;99.90;;;;;;5011885;28;20018;-69
2020/12/15 02:13:04;;;;;;;20.05;13.93;;;4.00;99.90;;;;;;5011012;28;20017;-68
2020/12/15 02:15:30;;;;;;;21.25;14.30;;;4.00;99.90;;;;;;5011751;28;20033;-69
2020/12/15 02:17:56;;;;;;;20.30;13.73;;;4.00;99.90;;;;;;5011765;28;20053;-68
2020/12/15 02:20:21;;;;;;;23.80;14.50;;;4.00;99.90;;;;;;5011550;28;20041;-69
2020/12/15 02:22:47;;;;;;;21.55;14.23;;;4.00;99.90;;;;;;5011011;28;20026;-69
2020/12/15 02:25:12;;;;;;;22.58;13.63;;;4.00;99.90;;;;;;5011658;28;20037;-69
2020/12/15 02:27:38;;;;;;;17.05;11.80;;;4.00;99.90;;;;;;5011018;28;20040;-69
2020/12/15 02:30:06;;;;;;;24.42;13.77;;;4.00;99.90;;;;;;5012768;28;20076;-69
2020/12/15 02:32:36;;;;;;;21.08;13.68;;;4.10;99.90;;;;;;5015574;28;20068;-69
2020/12/15 02:35:03;;;;;;;20.63;12.88;;;4.10;99.90;;;;;;5015411;28;20060;-69
2020/12/15 02:37:29;;;;;;;21.23;14.65;;;4.10;99.90;;;;;;5015682;28;20101;-69
2020/12/15 02:40:04;;;;;;;20.63;13.23;;;4.10;99.90;;;;;;5015676;28;20109;-69
2020/12/15 02:42:30;;;;;;;20.02;13.95;;;4.20;99.90;;;;;;5015249;28;20037;-69
2020/12/15 02:44:56;;;;;;;21.48;14.48;;;4.20;99.90;;;;;;5014853;28;20476;-69
2020/12/15 02:47:22;;;;;;;18.73;13.27;;;4.10;99.90;;;;;;5015194;28;20029;-69
2020/12/15 02:49:48;;;;;;;19.33;12.68;;;4.20;99.90;;;;;;5015568;28;20117;-69
2020/12/15 02:52:15;;;;;;;25.52;15.68;;;4.10;99.90;;;;;;5015426;28;20032;-68
2020/12/15 02:54:40;;;;;;;22.35;13.65;;;4.20;99.90;;;;;;5014489;28;20048;-69
2020/12/15 02:57:06;;;;;;;19.17;13.35;;;4.10;99.90;;;;;;5024011;28;20400;-69
2020/12/15 02:59:32;;;;;;;22.10;13.25;;;4.10;99.90;;;;;;5052881;28;20072;-68
2020/12/15 03:01:57;;;;;;;20.77;12.55;;;4.20;99.90;;;;;;5025324;28;20113;-68
2020/12/15 03:04:23;;;;;;;18.33;13.38;;;4.20;99.90;;;;;;5014283;28;20084;-69
2020/12/15 03:06:49;;;;;;;22.17;13.38;;;4.20;99.90;;;;;;5015081;28;20022;-68
2020/12/15 03:09:15;;;;;;;19.42;13.48;;;4.30;99.90;;;;;;5015124;28;20034;-69
2020/12/15 03:11:40;;;;;;;19.45;12.93;;;4.30;99.90;;;;;;5014941;28;20501;-69
2020/12/15 03:14:06;;;;;;;19.60;12.82;;;4.30;99.90;;;;;;5014128;28;20018;-69
2020/12/15 03:16:33;;;;;;;18.58;12.80;;;4.40;99.90;;;;;;5012517;28;20456;-69
2020/12/15 03:18:58;;;;;;;18.77;12.48;;;4.40;99.90;;;;;;5014885;28;20030;-69
2020/12/15 03:21:24;;;;;;;22.00;12.63;;;4.40;99.90;;;;;;5014845;28;20025;-69
2020/12/15 03:23:53;;;;;;;17.98;12.02;;;4.30;99.90;;;;;;5013980;28;20080;-69
2020/12/15 03:26:18;;;;;;;19.13;12.27;;;4.40;99.90;;;;;;5014617;28;20080;-69
2020/12/15 03:28:44;;;;;;;20.10;11.90;;;4.50;99.90;;;;;;5014257;28;20022;-69
2020/12/15 03:31:10;;;;;;;18.05;12.50;;;4.50;99.90;;;;;;5014436;28;20022;-69
2020/12/15 03:33:35;;;;;;;15.65;11.13;;;4.40;99.90;;;;;;5013901;28;20026;-69
2020/12/15 03:36:02;;;;;;;16.70;12.10;;;4.50;99.90;;;;;;5014576;28;20034;-69
2020/12/15 03:38:27;;;;;;;15.23;11.18;;;4.50;99.90;;;;;;5014772;28;20026;-68
2020/12/15 03:40:54;;;;;;;17.85;12.57;;;4.50;99.90;;;;;;5014002;28;20387;-70
2020/12/15 03:43:19;;;;;;;15.90;11.52;;;4.50;99.90;;;;;;5013408;28;20109;-69
2020/12/15 03:45:45;;;;;;;19.52;11.75;;;4.50;99.90;;;;;;5014190;28;20160;-69
2020/12/15 03:48:12;;;;;;;18.88;12.98;;;4.50;99.90;;;;;;5014188;28;20073;-69
2020/12/15 03:50:38;;;;;;;14.70;10.60;;;4.50;99.90;;;;;;5014321;28;20037;-69
2020/12/15 03:53:04;;;;;;;16.25;10.75;;;4.50;99.90;;;;;;5013552;28;20025;-69
2020/12/15 03:55:30;;;;;;;16.52;10.68;;;4.50;99.90;;;;;;5029399;28;20496;-69
2020/12/15 03:57:56;;;;;;;14.00;10.05;;;4.50;99.90;;;;;;5013984;28;20030;-69
2020/12/15 04:00:22;;;;;;;19.58;11.88;;;4.60;99.90;;;;;;5013987;28;20034;-69
2020/12/15 04:02:48;;;;;;;17.25;11.57;;;4.60;99.90;;;;;;5011857;28;20061;-68
2020/12/15 04:05:14;;;;;;;21.20;11.88;;;4.60;99.90;;;;;;5013916;28;20029;-69
2020/12/15 04:07:40;;;;;;;17.23;11.77;;;4.70;99.90;;;;;;5013748;28;20029;-69
2020/12/15 04:10:06;;;;;;;15.82;11.35;;;4.50;99.90;;;;;;5013993;28;20022;-68
2020/12/15 04:12:32;;;;;;;16.75;10.75;;;4.50;99.90;;;;;;5013590;28;20036;-68
2020/12/15 04:14:57;;;;;;;16.95;11.57;;;4.50;99.90;;;;;;5012779;28;20029;-69
2020/12/15 04:17:23;;;;;;;17.38;11.73;;;4.50;99.90;;;;;;5013661;28;20037;-69
2020/12/15 04:19:49;;;;;;;14.57;10.63;;;4.60;99.90;;;;;;5013547;28;20109;-69
2020/12/15 04:22:14;;;;;;;14.50;10.05;;;4.50;99.90;;;;;;5013884;28;20030;-70
2020/12/15 04:24:40;;;;;;;20.92;11.77;;;4.40;99.90;;;;;;5026324;28;20033;-68
2020/12/15 04:27:06;;;;;;;16.50;11.13;;;4.50;99.90;;;;;;5013156;28;20114;-69
2020/12/15 04:29:31;;;;;;;18.00;10.82;;;4.50;99.90;;;;;;5012212;28;20017;-69
2020/12/15 04:31:57;;;;;;;16.88;11.07;;;4.50;99.90;;;;;;5013705;28;20096;-69
2020/12/15 04:34:23;;;;;;;15.70;10.93;;;4.50;99.90;;;;;;5012990;28;20022;-69
2020/12/15 04:36:49;;;;;;;16.75;12.02;;;4.50;99.90;;;;;;5013413;28;20072;-69
2020/12/15 04:39:15;;;;;;;16.33;10.75;;;4.60;99.90;;;;;;5013428;28;20041;-69
2020/12/15 04:41:41;;;;;;;15.43;10.15;;;4.50;99.90;;;;;;5013503;28;20484;-69
2020/12/15 04:44:08;;;;;;;14.95;10.02;;;4.60;99.90;;;;;;5012062;28;20030;-68
2020/12/15 04:46:51;;;;;;;13.95;9.63;;;4.60;99.90;;;;;;5013127;28;20022;-67
2020/12/15 04:49:21;;;;;;;14.30;9.38;;;4.70;99.90;;;;;;5012754;28;20037;-67
2020/12/15 04:52:04;;;;;;;16.73;10.52;;;4.60;99.90;;;;;;5013230;28;20050;-68
2020/12/15 04:54:34;;;;;;;16.45;10.68;;;4.50;99.90;;;;;;5011652;28;20018;-68
2020/12/15 04:57:02;;;;;;;16.73;10.27;;;4.60;99.90;;;;;;5012948;28;20033;-67
2020/12/15 04:59:32;;;;;;;14.27;9.45;;;4.60;99.90;;;;;;5012900;28;20034;-68
2020/12/15 05:01:59;;;;;;;16.60;10.50;;;4.60;99.90;;;;;;5012994;28;20089;-69
2020/12/15 05:04:26;;;;;;;14.52;9.88;;;4.40;99.90;;;;;;5012243;28;20040;-69
2020/12/15 05:06:54;;;;;;;16.42;9.80;;;4.50;99.90;;;;;;5012683;28;20483;-68
2020/12/15 05:09:28;;;;;;;15.02;10.48;;;4.50;99.90;;;;;;5012803;28;20037;-68
2020/12/15 05:11:54;;;;;;;14.18;9.95;;;4.60;99.90;;;;;;5012460;28;20387;-68
2020/12/15 05:14:20;;;;;;;13.85;9.68;;;4.50;99.90;;;;;;5011735;28;20022;-68
2020/12/15 05:16:46;;;;;;;13.35;9.88;;;4.50;99.90;;;;;;5012511;28;20028;-68
2020/12/15 05:19:11;;;;;;;17.60;10.65;;;4.50;99.90;;;;;;5005003;28;20065;-68
2020/12/15 05:21:37;;;;;;;14.00;10.68;;;4.60;99.90;;;;;;5011874;28;20035;-68
2020/12/15 05:24:08;;;;;;;16.30;10.50;;;4.60;99.90;;;;;;5014761;28;20083;-68
2020/12/15 05:26:34;;;;;;;16.87;9.87;;;4.60;99.90;;;;;;5031938;28;20037;-69
2020/12/15 05:29:05;;;;;;;16.27;10.80;;;4.60;99.90;;;;;;5031512;28;20238;-68
2020/12/15 05:31:31;;;;;;;19.02;10.98;;;4.50;99.90;;;;;;5031868;28;20026;-68
2020/12/15 05:33:58;;;;;;;18.00;10.65;;;4.60;99.90;;;;;;5030985;28;20039;-68
2020/12/15 05:36:25;;;;;;;16.98;10.68;;;4.60;99.90;;;;;;5063641;22;20985;-72
2020/12/15 05:39:08;;;;;;;17.45;12.05;;;4.60;99.90;;;;;;5060189;28;20498;-71
2020/12/15 05:41:34;;;;;;;15.50;10.20;;;4.60;99.90;;;;;;5051911;28;20029;-72
2020/12/15 05:44:01;;;;;;;16.38;11.32;;;4.60;99.90;;;;;;5050610;28;20060;-71
2020/12/15 05:46:28;;;;;;;20.30;11.25;;;4.60;99.90;;;;;;5051874;28;20421;-70
2020/12/15 05:49:02;;;;;;;19.92;11.15;;;4.70;99.90;;;;;;5051053;28;20382;-71
2020/12/15 05:51:44;;;;;;;13.80;10.52;;;4.60;99.90;;;;;;5051776;28;20082;-72
2020/12/15 05:54:14;;;;;;;17.27;10.45;;;4.60;99.90;;;;;;5049685;28;20101;-71
2020/12/15 05:56:41;;;;;;;16.17;11.15;;;4.70;99.90;;;;;;5051371;28;20021;-71
2020/12/15 05:59:20;;;;;;;16.70;10.63;;;4.70;99.90;;;;;;5051133;28;20573;-70
2020/12/15 06:01:51;;;;;;;15.00;11.02;;;4.70;99.90;;;;;;5051296;28;20021;-71
2020/12/15 06:04:18;;;;;;;16.05;10.10;;;4.90;99.90;;;;;;5050663;28;20490;-71
2020/12/15 06:06:45;;;;;;;24.00;14.48;;;4.80;99.90;;;;;;5050921;28;20893;-71
2020/12/15 06:09:17;;;;;;;16.60;11.20;;;4.70;99.90;;;;;;5051251;28;20032;-71
2020/12/15 06:11:44;;;;;;;;;;;4.70;99.90;;;;;;5052044;28;20036;-70
2020/12/15 06:14:11;;;;;;;13.48;9.75;;;4.80;99.90;;;;;;5050459;28;19912;-72
2020/12/15 06:16:38;;;;;;;13.73;10.05;;;4.70;99.90;;;;;;5051459;28;20443;-74
2020/12/15 06:19:11;;;;;;;18.05;11.45;;;4.70;99.90;;;;;;5051373;28;20028;-69
2020/12/15 06:21:39;;;;;;;16.30;11.13;;;4.90;99.90;;;;;;5051282;28;20108;-71
2020/12/15 06:24:06;;;;;;;15.57;10.00;;;5.20;99.90;;;;;;5050527;28;20519;-69
2020/12/15 06:26:34;;;;;;;12.55;9.48;;;5.40;99.90;;;;;;5051163;28;20029;-68
2020/12/15 06:29:08;;;;;;;13.60;9.35;;;5.60;99.90;;;;;;5051013;28;20028;-69
2020/12/15 06:31:35;;;;;;;12.98;9.90;;;5.60;99.90;;;;;;5051528;28;20056;-68
2020/12/15 06:34:03;;;;;;;13.90;9.30;;;5.50;99.90;;;;;;5050452;28;20036;-70
2020/12/15 06:36:31;;;;;;;16.35;8.93;;;5.50;99.90;;;;;;5050894;28;20111;-71
2020/12/15 06:39:01;;;;;;;11.38;8.73;;;5.40;99.90;;;;;;5049538;28;20413;-72
2020/12/15 06:41:27;;;;;;;11.10;8.00;;;5.30;99.90;;;;;;5051378;28;20032;-73
2020/12/15 06:44:05;;;;;;;13.50;9.85;;;5.30;99.90;;;;;;5050311;28;20025;-71
2020/12/15 06:46:31;;;;;;;15.27;9.88;;;5.30;99.90;;;;;;5051040;28;20430;-71
2020/12/15 06:48:57;;;;;;;13.23;9.52;;;5.30;99.90;;;;;;5050600;28;20025;-71
2020/12/15 06:51:31;;;;;;;13.20;9.40;;;5.20;99.90;;;;;;5049938;28;20028;-70
2020/12/15 06:54:01;;;;;;;13.40;9.57;;;5.20;99.90;;;;;;5050083;28;20021;-70
2020/12/15 06:56:29;;;;;;;13.98;9.60;;;5.10;99.90;;;;;;5051154;28;20025;-72
2020/12/15 06:59:28;;;;;;;22.42;10.57;;;5.20;99.90;;;;;;5050642;28;20031;-72
2020/12/15 07:02:16;;;;;;;16.20;9.10;;;5.10;99.90;;;;;;5050938;28;20025;-71
2020/12/15 07:04:47;;;;;;;15.70;9.80;;;5.00;99.90;;;;;;5049784;28;20540;-70
2020/12/15 07:07:14;;;;;;;13.95;9.30;;;5.00;99.90;;;;;;5050492;28;20033;-74
2020/12/15 07:09:40;;;;;;;14.98;8.70;;;5.00;99.90;;;;;;5049373;28;20028;-73
2020/12/15 07:12:14;;;;;;;16.10;8.98;;;5.00;99.90;;;;;;5050416;28;20021;-73
2020/12/15 07:14:51;;;;;;;11.30;8.27;;;5.20;99.90;;;;;;5048208;28;20370;-72
2020/12/15 07:17:17;;;;;;;15.63;9.35;;;5.10;99.90;;;;;;5053367;28;20037;-70
2020/12/15 07:19:43;;;;;;;14.43;8.70;;;5.10;99.90;;;;;;5053669;28;20025;-73
2020/12/15 07:22:09;;;;;;;13.32;9.05;;;5.10;99.90;;;;;;5054596;28;20017;-72
2020/12/15 07:24:35;;;;;;;8.75;7.00;;;5.10;99.90;;;;;;5052742;28;20060;-72
2020/12/15 07:27:01;;;;;;;12.10;8.60;;;5.00;99.90;;;;;;5055208;28;20021;-74
2020/12/15 07:29:27;;;;;;;13.38;8.55;;;5.20;99.90;;;;;;5054734;28;20474;-74
2020/12/15 07:31:53;;;;;;;13.48;9.77;;;5.10;99.90;;;;;;5054656;28;20421;-74
2020/12/15 07:34:19;;;;;;;12.02;8.65;;;5.40;99.90;;;;;;5053596;28;20027;-74
2020/12/15 07:36:47;;;;;;;15.30;9.82;;;5.20;99.90;;;;;;5054265;28;20037;-74
2020/12/15 07:39:13;;;;;;;12.23;9.02;;;5.20;99.90;;;;;;5055894;28;20032;-74
2020/12/15 07:41:39;;;;;;;13.95;8.88;;;5.20;99.90;;;;;;5056872;28;20033;-75
2020/12/15 07:44:16;;;;;;;12.65;8.63;;;5.20;99.90;;;;;;5057025;28;20032;-73
2020/12/15 07:46:46;;;;;;;17.27;8.98;;;5.30;99.90;;;;;;5060120;28;20032;-73
2020/12/15 07:49:12;;;;;;;14.57;9.43;;;5.30;99.90;;;;;;5062558;28;20147;-74
2020/12/15 07:51:39;;;;;;;12.77;9.02;;;5.30;99.90;;;;;;5059801;28;20021;-72
2020/12/15 07:54:05;;;;;;;14.48;9.70;;;5.30;99.90;;;;;;5060867;28;20025;-72
2020/12/15 07:56:31;;;;;;;13.55;9.10;;;5.50;99.90;;;;;;5066049;28;20021;-73
2020/12/15 07:58:58;;;;;;;10.95;7.45;;;5.50;99.90;;;;;;5055523;28;20028;-73
2020/12/15 08:01:26;;;;;;;13.18;8.98;;;5.50;99.90;;;;;;5056077;28;20091;-72
2020/12/15 08:04:11;;;;;;;14.40;9.57;;;5.50;99.90;;;;;;5054181;28;20458;-74
2020/12/15 08:06:42;;;;;;;14.13;9.60;;;5.50;99.90;;;;;;5053908;28;20029;-74
2020/12/15 08:09:10;;;;;;;13.88;9.27;;;5.70;99.90;;;;;;5054021;28;20025;-74
2020/12/15 08:11:37;;;;;;;13.82;9.40;;;5.60;99.90;;;;;;5053872;28;20037;-72
2020/12/15 08:14:07;;;;;;;13.65;9.38;;;5.60;99.90;;;;;;5053239;28;20021;-72
2020/12/15 08:16:32;;;;;;;14.80;10.93;;;5.70;99.90;;;;;;5053863;28;20031;-73
2020/12/15 08:19:03;;;;;;;23.25;15.48;;;5.60;99.90;;;;;;5054591;28;20116;-73
2020/12/15 08:21:41;;;;;;;16.63;11.15;;;5.60;99.90;;;;;;5053407;28;20052;-72
2020/12/15 08:24:12;;;;;;;15.63;9.65;;;5.70;99.90;;;;;;5052951;28;20056;-72
2020/12/15 08:26:41;;;;;;;19.75;12.48;;;5.70;99.90;;;;;;5053611;28;20020;-74
2020/12/15 08:29:10;;;;;;;16.33;10.18;;;5.80;99.90;;;;;;5051030;28;20025;-73
2020/12/15 08:31:41;;;;;;;16.77;10.43;;;5.80;99.90;;;;;;5053754;28;20049;-72
2020/12/15 08:34:18;;;;;;;12.02;8.75;;;5.80;99.90;;;;;;5052596;28;20021;-72
2020/12/15 08:36:49;;;;;;;13.48;9.60;;;5.90;99.90;;;;;;5053048;28;20036;-73
2020/12/15 08:39:20;;;;;;;17.40;9.85;;;5.90;99.90;;;;;;5053502;28;20029;-73
2020/12/15 08:41:54;;;;;;;14.57;9.32;;;6.10;99.90;;;;;;5053525;28;20170;-74
2020/12/15 08:44:20;;;;;;;13.50;9.05;;;6.10;99.90;;;;;;5052903;28;20048;-72
2020/12/15 08:46:46;;;;;;;13.80;9.13;;;6.10;99.90;;;;;;5051958;28;20036;-71
2020/12/15 08:49:16;;;;;;;16.75;8.32;;;6.10;99.90;;;;;;5053249;28;20647;-72
2020/12/15 08:51:50;;;;;;;10.73;8.18;;;6.10;99.90;;;;;;5051624;28;20025;-72
2020/12/15 08:54:17;;;;;;;15.43;9.85;;;5.90;99.90;;;;;;5052396;28;20092;-73
2020/12/15 08:56:43;;;;;;;12.43;9.82;;;6.10;99.90;;;;;;5053168;28;20043;-74
2020/12/15 08:59:17;;;;;;;15.70;11.05;;;6.10;99.90;;;;;;5053005;28;20490;-73
2020/12/15 09:01:44;;;;;;;18.17;13.32;;;6.20;99.90;;;;;;5053032;28;20438;-72
2020/12/15 09:04:11;;;;;;;22.08;14.23;;;6.20;99.90;;;;;;5051022;28;20028;-73
2020/12/15 09:06:40;;;;;;;17.90;12.13;;;6.30;99.90;;;;;;5052573;28;20025;-72
2020/12/15 09:09:07;;;;;;;14.95;10.93;;;6.20;99.90;;;;;;5052731;28;20021;-72
2020/12/15 09:11:33;;;;;;;11.82;9.68;;;6.30;99.90;;;;;;5052823;28;20445;-73
2020/12/15 09:14:03;;;;;;;12.80;9.30;;;6.40;99.90;;;;;;5051923;28;20021;-73
2020/12/15 09:16:33;;;;;;;14.35;9.50;;;6.40;99.90;;;;;;5052634;28;20063;-74
2020/12/15 09:19:09;;;;;;;17.75;10.30;;;6.40;99.90;;;;;;5052486;28;20528;-73
2020/12/15 09:21:35;;;;;;;17.25;9.85;;;6.40;99.90;;;;;;5052368;28;20083;-74
2020/12/15 09:24:01;;;;;;;20.02;14.07;;;6.40;99.90;;;;;;5050289;28;20025;-72
2020/12/15 09:26:26;;;;;;;12.68;9.07;;;6.40;99.90;;;;;;5052199;28;20017;-73
2020/12/15 09:28:52;;;;;;;13.60;9.48;;;6.40;99.90;;;;;;5052307;28;20497;-74
2020/12/15 09:31:19;;;;;;;16.45;13.63;;;6.40;99.90;;;;;;5052459;28;20390;-75
2020/12/15 09:33:46;;;;;;;13.50;10.15;;;6.40;99.90;;;;;;5045277;28;20021;-73
2020/12/15 09:36:13;;;;;;;13.93;8.73;;;6.50;99.90;;;;;;5049629;28;20025;-77
2020/12/15 09:38:39;;;;;;;13.40;8.57;;;6.50;99.90;;;;;;5049088;28;20017;-73
2020/12/15 09:41:05;;;;;;;12.18;8.55;;;6.50;99.90;;;;;;5051337;28;20043;-75
2020/12/15 09:43:30;;;;;;;14.52;10.45;;;6.60;99.90;;;;;;5052157;28;20434;-76
2020/12/15 09:45:56;;;;;;;16.58;9.80;;;6.60;99.90;;;;;;5052803;28;20036;-75
2020/12/15 09:48:22;;;;;;;13.38;9.15;;;6.80;99.90;;;;;;5052396;28;20047;-73
2020/12/15 09:50:49;;;;;;;18.80;10.05;;;7.00;99.90;;;;;;5051897;28;20044;-69
2020/12/15 09:53:16;;;;;;;11.25;8.70;;;7.30;99.90;;;;;;5050583;28;20089;-68
2020/12/15 09:55:42;;;;;;;10.02;8.00;;;7.40;99.90;;;;;;5052172;28;20113;-75
2020/12/15 09:58:07;;;;;;;14.93;9.05;;;7.70;99.90;;;;;;5052614;28;20057;-75
2020/12/15 10:00:33;;;;;;;14.18;8.07;;;7.90;99.90;;;;;;5052441;28;20032;-75
2020/12/15 10:02:59;;;;;;;13.18;7.97;;;8.00;99.90;;;;;;5051218;28;20505;-73
2020/12/15 10:05:25;;;;;;;10.73;8.50;;;8.20;99.90;;;;;;5052173;28;20398;-73
2020/12/15 10:07:50;;;;;;;13.55;8.18;;;8.30;99.90;;;;;;5052151;28;20592;-74
2020/12/15 10:10:16;;;;;;;13.40;7.85;;;8.50;99.90;;;;;;5052023;28;20021;-74
2020/12/15 10:12:43;;;;;;;14.52;7.85;;;8.70;99.90;;;;;;5051506;28;20108;-74
2020/12/15 10:15:10;;;;;;;12.27;8.35;;;8.90;99.90;;;;;;5051697;28;20025;-74
2020/12/15 10:17:36;;;;;;;12.70;8.52;;;9.10;99.90;;;;;;5051787;28;20108;-75
2020/12/15 10:20:03;;;;;;;12.38;8.18;;;9.10;99.90;;;;;;5050411;28;20387;-74
2020/12/15 10:22:29;;;;;;;14.90;9.20;;;8.90;99.90;;;;;;5052029;28;20032;-76
2020/12/15 10:24:55;;;;;;;14.38;9.57;;;8.50;99.90;;;;;;5050353;28;20021;-74
2020/12/15 10:27:21;;;;;;;14.45;9.00;;;8.50;99.90;;;;;;5051111;28;20151;-74
2020/12/15 10:29:46;;;;;;;16.42;8.32;;;8.50;99.90;;;;;;5051098;28;20140;-75
2020/12/15 10:32:12;;;;;;;13.93;8.68;;;8.50;99.90;;;;;;5050781;28;20025;-75
2020/12/15 10:34:38;;;;;;;13.02;8.60;;;8.30;99.90;;;;;;5051393;28;20086;-74
2020/12/15 10:37:03;;;;;;;12.57;9.63;;;8.30;99.90;;;;;;5051325;28;20451;-74
2020/12/15 10:39:29;;;;;;;16.20;9.05;;;8.30;99.90;;;;;;5053166;28;20025;-75
2020/12/15 10:41:55;;;;;;;15.25;9.10;;;8.10;99.90;;;;;;5052559;28;20086;-74
2020/12/15 10:44:20;;;;;;;15.85;8.55;;;8.20;99.90;;;;;;5050477;28;20047;-74
2020/12/15 10:46:46;;;;;;;16.33;8.38;;;7.90;99.90;;;;;;5051174;28;20086;-73
2020/12/15 10:49:15;;;;;;;11.43;7.32;;;8.10;99.90;;;;;;5057871;28;20084;-73
2020/12/15 10:51:41;;;;;;;12.15;7.55;;;8.10;99.90;;;;;;5056301;28;20024;-73
2020/12/15 10:54:07;;;;;;;15.68;7.88;;;8.10;99.90;;;;;;5055068;28;20136;-73
2020/12/15 10:56:33;;;;;;;10.48;7.47;;;8.20;99.90;;;;;;5055360;28;20424;-74
2020/12/15 10:58:59;;;;;;;10.80;7.25;;;8.50;99.90;;;;;;5056296;28;20456;-76
2020/12/15 11:01:26;;;;;;;11.90;8.23;;;8.80;99.90;;;;;;5056546;28;20040;-75
2020/12/15 11:03:52;;;;;;;13.23;7.43;;;9.10;99.90;;;;;;5056048;28;20154;-73
2020/12/15 11:06:23;;;;;;;11.73;8.30;;;9.30;99.90;;;;;;5055312;28;20025;-75
2020/12/15 11:08:48;;;;;;;12.70;8.00;;;9.60;99.90;;;;;;5055438;28;20056;-75
2020/12/15 11:11:14;;;;;;;11.35;7.60;;;10.00;99.90;;;;;;5056131;28;20490;-75
2020/12/15 11:13:40;;;;;;;12.00;8.10;;;10.80;99.90;;;;;;5055659;28;20108;-75
2020/12/15 11:16:05;;;;;;;12.65;8.25;;;11.60;99.90;;;;;;5055921;28;20028;-76
2020/12/15 11:18:31;;;;;;;13.05;8.05;;;11.80;99.90;;;;;;5054792;28;20040;-77
2020/12/15 11:20:57;;;;;;;13.60;8.85;;;11.90;99.90;;;;;;5054286;28;20025;-76
2020/12/15 11:23:22;;;;;;;13.43;8.75;;;11.70;99.90;;;;;;5054258;28;20198;-70
2020/12/15 11:25:49;;;;;;;11.95;8.57;;;11.20;99.90;;;;;;5054855;28;20525;-72
2020/12/15 11:28:18;;;;;;;12.98;7.78;;;10.70;99.90;;;;;;5055413;28;20653;-74
2020/12/15 11:30:44;;;;;;;12.70;8.20;;;10.70;99.90;;;;;;5054462;28;20027;-73
2020/12/15 11:33:10;;;;;;;12.27;8.43;;;10.20;99.90;;;;;;5052844;28;20024;-74
2020/12/15 11:35:36;;;;;;;11.48;8.23;;;9.80;99.90;;;;;;5055070;28;20025;-73
2020/12/15 11:38:03;;;;;;;13.88;8.60;;;9.90;99.90;;;;;;5054997;28;20078;-72
2020/12/15 11:40:30;;;;;;;16.40;8.40;;;9.90;99.90;;;;;;5055156;28;20032;-73
2020/12/15 11:42:56;;;;;;;14.68;8.50;;;9.70;99.90;;;;;;5053217;28;20029;-75
2020/12/15 11:45:23;;;;;;;13.40;8.80;;;9.80;99.90;;;;;;5054960;28;20057;-72
2020/12/15 11:47:51;;;;;;;15.07;8.20;;;9.90;99.90;;;;;;5055211;28;20078;-73
2020/12/15 11:50:17;;;;;;;12.27;8.95;;;9.80;99.90;;;;;;5054878;28;20060;-72
2020/12/15 11:52:43;;;;;;;14.85;8.88;;;9.80;99.90;;;;;;5052159;28;20029;-73
2020/12/15 11:55:09;;;;;;;11.55;8.25;;;9.70;99.90;;;;;;5054030;28;20467;-71
2020/12/15 11:57:35;;;;;;;17.83;9.60;;;9.60;99.90;;;;;;5053774;28;20395;-74
2020/12/15 12:00:04;;;;;;;14.43;9.77;;;9.60;99.90;;;;;;5054126;28;20454;-73
2020/12/15 12:02:30;;;;;;;16.05;9.35;;;9.50;99.90;;;;;;5053937;28;20028;-72
2020/12/15 12:04:55;;;;;;;15.73;9.55;;;9.20;99.90;;;;;;5051945;28;20021;-72
2020/12/15 12:07:21;;;;;;;14.23;9.60;;;9.20;99.90;;;;;;5053504;28;20075;-74
2020/12/15 12:09:47;;;;;;;13.75;9.52;;;9.20;99.90;;;;;;5054063;28;20033;-76
2020/12/15 12:12:12;;;;;;;12.25;9.15;;;9.20;99.90;;;;;;5054093;28;20040;-72
2020/12/15 12:14:38;;;;;;;14.73;10.02;;;9.10;99.90;;;;;;5053239;28;20017;-72
2020/12/15 12:17:04;;;;;;;18.02;9.82;;;9.00;99.90;;;;;;5053627;28;20032;-73
2020/12/15 12:19:29;;;;;;;12.07;9.18;;;9.00;99.90;;;;;;5052313;28;20020;-72
2020/12/15 12:21:55;;;;;;;13.23;9.95;;;9.10;99.90;;;;;;5053751;28;20032;-73
2020/12/15 12:24:21;;;;;;;15.15;10.95;;;9.30;99.90;;;;;;5052574;28;20033;-74
2020/12/15 12:26:50;;;;;;;13.85;9.55;;;9.40;99.90;;;;;;5053280;28;20025;-72
2020/12/15 12:29:17;;;;;;;13.32;9.18;;;9.50;99.90;;;;;;5053064;28;20035;-72
2020/12/15 12:31:50;;;;;;;14.35;9.02;;;9.40;99.90;;;;;;5051965;28;20387;-72
2020/12/15 12:34:16;;;;;;;15.20;9.52;;;9.40;99.90;;;;;;5052531;28;20025;-73
2020/12/15 12:36:42;;;;;;;13.90;9.95;;;9.50;99.90;;;;;;5052776;28;20032;-72
2020/12/15 12:39:08;;;;;;;14.25;9.90;;;9.50;99.90;;;;;;5052999;28;20033;-72
2020/12/15 12:41:34;;;;;;;13.15;9.82;;;9.50;99.90;;;;;;5053074;28;20551;-73